createdAt,value
2016-11-22T00:00:55.486Z,17.22
2016-11-22T00:02:07.272Z,17.29
2016-11-22T00:03:19.185Z,17.34
2016-11-22T00:04:31.675Z,17.38
2016-11-22T00:05:41.967Z,17.39
2016-11-22T00:06:52.854Z,17.48
2016-11-22T00:08:05.038Z,17.57
2016-11-22T00:09:17.199Z,17.68
2016-11-22T00:10:28.925Z,17.68
2016-11-22T00:11:40.815Z,17.45
2016-11-22T00:12:51.301Z,17.45
2016-11-22T00:14:03.081Z,17.49
2016-11-22T00:15:15.677Z,17.46
2016-11-22T00:16:28.205Z,17.59
2016-11-22T00:17:39.429Z,17.12
2016-11-22T00:18:51.587Z,17.08
2016-11-22T00:20:02.775Z,17.23
2016-11-22T00:21:14.172Z,17.23
2016-11-22T00:22:26.804Z,17.36
2016-11-22T00:23:39.297Z,17.46
2016-11-22T00:24:51.443Z,17.44
2016-11-22T00:26:03.079Z,17.44
2016-11-22T00:27:13.950Z,17.51
2016-11-22T00:28:26.619Z,17.48
2016-11-22T00:29:39.276Z,17.16
2016-11-22T00:30:52.047Z,17.09
2016-11-22T00:32:03.864Z,17.02
2016-11-22T00:33:15.439Z,17.16
2016-11-22T00:35:42.742Z,17.33
2016-11-22T00:36:55.310Z,17.08
2016-11-22T00:38:07.975Z,17.22
2016-11-22T00:39:20.125Z,17.19
2016-11-22T00:40:31.650Z,17.38
2016-11-22T00:41:43.536Z,17.49
2016-11-22T00:42:54.353Z,17.54
2016-11-22T00:44:05.207Z,17.57
2016-11-22T00:45:17.383Z,17.52
2016-11-22T00:46:29.362Z,17.57
2016-11-22T00:47:40.835Z,17.64
2016-11-22T00:48:53.369Z,17.48
2016-11-22T00:50:05.401Z,17.3
2016-11-22T00:51:17.192Z,17.19
2016-11-22T00:52:29.670Z,17.27
2016-11-22T00:53:41.855Z,17.38
2016-11-22T00:54:53.360Z,17.49
2016-11-22T00:56:05.993Z,17.46
2016-11-22T00:57:17.178Z,17.56
2016-11-22T00:58:29.104Z,17.46
2016-11-22T00:59:40.184Z,17.31
2016-11-22T01:00:51.748Z,17.22
2016-11-22T01:02:03.077Z,17.05
2016-11-22T01:03:15.181Z,17.14
2016-11-22T01:04:27.154Z,17.23
2016-11-22T01:05:37.722Z,17.23
2016-11-22T01:06:48.829Z,17.2
2016-11-22T01:08:00.390Z,17.08
2016-11-22T01:09:10.900Z,17.02
2016-11-22T01:10:22.722Z,17.02
2016-11-22T01:11:34.401Z,17.06
2016-11-22T01:12:47.466Z,17.06
2016-11-22T01:13:59.656Z,17.04
2016-11-22T01:15:11.483Z,16.93
2016-11-22T01:16:22.591Z,16.97
2016-11-22T01:17:34.778Z,16.96
2016-11-22T01:18:46.453Z,16.84
2016-11-22T01:19:58.609Z,16.89
2016-11-22T01:21:10.178Z,16.89
2016-11-22T01:22:21.690Z,16.86
2016-11-22T01:23:32.802Z,16.94
2016-11-22T01:24:42.269Z,17.02
2016-11-22T01:25:54.830Z,16.94
2016-11-22T01:27:07.507Z,16.86
2016-11-22T01:28:19.693Z,16.89
2016-11-22T01:29:32.245Z,16.86
2016-11-22T01:30:43.782Z,16.87
2016-11-22T01:31:55.508Z,16.87
2016-11-22T01:33:08.198Z,16.91
2016-11-22T01:34:20.009Z,16.89
2016-11-22T01:35:32.571Z,16.74
2016-11-22T01:36:43.183Z,16.83
2016-11-22T01:37:54.944Z,16.9
2016-11-22T01:39:05.231Z,16.83
2016-11-22T01:40:16.780Z,16.87
2016-11-22T01:41:28.255Z,16.71
2016-11-22T01:42:40.768Z,16.41
2016-11-22T01:43:53.237Z,16.32
2016-11-22T01:45:04.604Z,16.23
2016-11-22T01:46:17.073Z,16.17
2016-11-22T01:47:28.318Z,16.38
2016-11-22T01:48:39.774Z,16.39
2016-11-22T01:49:50.928Z,16.38
2016-11-22T01:51:02.505Z,16.49
2016-11-22T01:52:14.620Z,16.46
2016-11-22T01:53:26.461Z,16.51
2016-11-22T01:54:39.109Z,16.66
2016-11-22T01:55:50.965Z,16.57
2016-11-22T01:57:01.921Z,16.51
2016-11-22T01:58:14.070Z,16.6
2016-11-22T02:00:03.741Z,16.71
2016-11-22T02:01:16.253Z,16.72
2016-11-22T02:02:27.625Z,16.74
2016-11-22T02:03:39.918Z,16.91
2016-11-22T02:04:51.215Z,16.84
2016-11-22T02:06:04.452Z,16.5
2016-11-22T02:07:16.771Z,16.46
2016-11-22T02:08:28.554Z,16.6
2016-11-22T02:09:39.979Z,16.64
2016-11-22T02:10:52.681Z,16.43
2016-11-22T02:12:04.425Z,16.35
2016-11-22T02:13:17.666Z,16.36
2016-11-22T02:14:29.231Z,16.13
2016-11-22T02:15:41.496Z,16.1
2016-11-22T02:16:53.655Z,16.08
2016-11-22T02:18:04.648Z,16.13
2016-11-22T02:19:17.376Z,16.05
2016-11-22T02:20:30.630Z,16.13
2016-11-22T02:21:43.178Z,16.28
2016-11-22T02:22:54.174Z,16.38
2016-11-22T02:24:06.438Z,16.35
2016-11-22T02:25:18.617Z,16.43
2016-11-22T02:26:31.348Z,16.51
2016-11-22T02:27:43.160Z,16.64
2016-11-22T02:28:55.320Z,16.71
2016-11-22T02:30:07.229Z,16.61
2016-11-22T02:31:18.974Z,16.53
2016-11-22T02:32:30.644Z,16.56
2016-11-22T02:33:42.273Z,16.64
2016-11-22T02:34:53.977Z,16.76
2016-11-22T02:36:06.248Z,16.78
2016-11-22T02:37:17.149Z,16.68
2016-11-22T02:38:28.687Z,16.68
2016-11-22T02:39:40.251Z,16.39
2016-11-22T02:40:52.993Z,16.32
2016-11-22T02:42:04.477Z,16.2
2016-11-22T02:43:15.429Z,16.23
2016-11-22T02:44:26.871Z,16.38
2016-11-22T02:45:37.773Z,16.41
2016-11-22T02:46:48.969Z,16.24
2016-11-22T02:48:00.175Z,16.05
2016-11-22T02:49:11.939Z,16.04
2016-11-22T02:50:25.170Z,16.17
2016-11-22T02:51:37.797Z,16.28
2016-11-22T02:52:50.548Z,16.2
2016-11-22T02:54:02.048Z,16.1
2016-11-22T02:55:14.745Z,16.01
2016-11-22T02:56:26.828Z,16.02
2016-11-22T02:57:38.990Z,16.09
2016-11-22T02:58:50.274Z,16.08
2016-11-22T03:00:02.933Z,16.08
2016-11-22T03:01:14.596Z,16.05
2016-11-22T03:02:26.644Z,16.2
2016-11-22T03:03:38.951Z,16.13
2016-11-22T03:04:50.563Z,16.17
2016-11-22T03:06:02.099Z,16.38
2016-11-22T03:07:13.769Z,16.24
2016-11-22T03:08:25.384Z,16.36
2016-11-22T03:09:37.334Z,16.43
2016-11-22T03:10:49.967Z,16.42
2016-11-22T03:12:02.271Z,16.38
2016-11-22T03:13:13.827Z,16.29
2016-11-22T03:14:25.660Z,16.32
2016-11-22T03:15:38.797Z,16.33
2016-11-22T03:16:50.901Z,16.33
2016-11-22T03:18:03.522Z,16.21
2016-11-22T03:19:15.796Z,16.09
2016-11-22T03:20:28.945Z,16.01
2016-11-22T03:21:42.095Z,16.16
2016-11-22T03:22:54.319Z,16.2
2016-11-22T03:24:06.095Z,16.29
2016-11-22T03:25:19.357Z,16.31
2016-11-22T03:26:30.551Z,16.24
2016-11-22T03:27:42.640Z,16.23
2016-11-22T03:28:54.987Z,16.09
2016-11-22T03:30:06.954Z,16.13
2016-11-22T03:31:20.258Z,16.16
2016-11-22T03:32:31.677Z,16.13
2016-11-22T03:33:43.754Z,16.17
2016-11-22T03:34:55.891Z,16.26
2016-11-22T03:36:07.524Z,16.33
2016-11-22T03:37:19.703Z,16.26
2016-11-22T03:38:31.861Z,16.17
2016-11-22T03:39:44.419Z,16.28
2016-11-22T03:40:56.586Z,16.31
2016-11-22T03:42:07.862Z,16.41
2016-11-22T03:43:19.369Z,16.39
2016-11-22T03:44:30.942Z,16.47
2016-11-22T03:45:43.501Z,16.41
2016-11-22T03:46:54.585Z,16.47
2016-11-22T03:48:05.444Z,16.61
2016-11-22T03:49:18.145Z,16.61
2016-11-22T03:50:31.366Z,16.46
2016-11-22T03:51:43.119Z,16.49
2016-11-22T03:52:54.638Z,16.33
2016-11-22T03:54:05.572Z,16.38
2016-11-22T03:55:18.142Z,16.33
2016-11-22T03:56:30.862Z,16.47
2016-11-22T03:57:44.002Z,16.39
2016-11-22T03:58:56.602Z,16.47
2016-11-22T04:00:08.517Z,16.41
2016-11-22T04:01:20.110Z,16.42
2016-11-22T04:02:31.469Z,16.38
2016-11-22T04:03:42.599Z,16.5
2016-11-22T04:04:54.490Z,16.65
2016-11-22T04:06:05.895Z,16.65
2016-11-22T04:07:18.542Z,16.33
2016-11-22T04:08:31.286Z,16.39
2016-11-22T04:09:42.328Z,16.26
2016-11-22T04:10:54.310Z,16.31
2016-11-22T04:12:06.133Z,16.38
2016-11-22T04:13:18.175Z,16.26
2016-11-22T04:14:29.705Z,16.12
2016-11-22T04:15:40.626Z,16.35
2016-11-22T04:16:53.573Z,16.41
2016-11-22T04:18:05.196Z,16.26
2016-11-22T04:19:17.333Z,16.23
2016-11-22T04:20:29.253Z,16.31
2016-11-22T04:21:41.098Z,16.28
2016-11-22T04:22:53.832Z,16.29
2016-11-22T04:24:06.533Z,16.24
2016-11-22T04:25:17.942Z,16.1
2016-11-22T04:26:29.181Z,15.95
2016-11-22T04:27:40.554Z,15.79
2016-11-22T04:28:52.748Z,15.68
2016-11-22T04:30:04.606Z,15.75
2016-11-22T04:31:16.011Z,15.86
2016-11-22T04:32:28.154Z,15.8
2016-11-22T04:33:39.436Z,15.62
2016-11-22T04:34:51.266Z,15.82
2016-11-22T04:36:03.833Z,15.88
2016-11-22T04:37:16.001Z,15.83
2016-11-22T04:38:28.009Z,15.84
2016-11-22T04:39:40.294Z,15.77
2016-11-22T04:40:51.334Z,15.67
2016-11-22T04:42:03.977Z,15.54
2016-11-22T04:43:17.150Z,15.61
2016-11-22T04:44:29.431Z,15.62
2016-11-22T04:45:41.067Z,15.8
2016-11-22T04:46:52.530Z,15.79
2016-11-22T04:48:05.088Z,15.8
2016-11-22T04:49:17.008Z,15.68
2016-11-22T04:50:28.986Z,15.64
2016-11-22T04:51:41.720Z,15.68
2016-11-22T04:52:54.372Z,15.51
2016-11-22T04:54:06.584Z,15.44
2016-11-22T04:55:18.491Z,15.58
2016-11-22T04:56:31.172Z,15.9
2016-11-22T04:57:43.226Z,15.88
2016-11-22T04:58:54.981Z,15.8
2016-11-22T05:00:07.772Z,15.91
2016-11-22T05:01:19.563Z,15.88
2016-11-22T05:02:31.041Z,15.91
2016-11-22T05:03:43.648Z,15.68
2016-11-22T05:04:56.339Z,15.64
2016-11-22T05:06:08.247Z,15.76
2016-11-22T05:07:20.191Z,15.65
2016-11-22T05:08:32.979Z,15.58
2016-11-22T05:09:45.234Z,15.58
2016-11-22T05:10:56.835Z,15.59
2016-11-22T05:12:08.343Z,15.51
2016-11-22T05:13:21.040Z,15.46
2016-11-22T05:14:33.589Z,15.54
2016-11-22T05:15:46.234Z,15.49
2016-11-22T05:16:57.789Z,15.47
2016-11-22T05:18:09.907Z,15.47
2016-11-22T05:19:22.710Z,15.49
2016-11-22T05:20:32.787Z,15.61
2016-11-22T05:21:44.119Z,15.62
2016-11-22T05:22:56.614Z,15.73
2016-11-22T05:24:07.751Z,15.64
2016-11-22T05:25:19.535Z,15.58
2016-11-22T05:26:31.617Z,15.68
2016-11-22T05:27:43.896Z,15.76
2016-11-22T05:28:57.123Z,15.91
2016-11-22T05:30:09.397Z,16.04
2016-11-22T05:31:21.464Z,16.04
2016-11-22T05:32:33.863Z,16.02
2016-11-22T05:33:45.235Z,16.1
2016-11-22T05:34:57.840Z,15.83
2016-11-22T05:36:10.439Z,15.91
2016-11-22T05:37:23.202Z,15.88
2016-11-22T05:38:36.371Z,16.02
2016-11-22T05:39:48.927Z,15.84
2016-11-22T05:41:00.651Z,15.82
2016-11-22T05:42:12.038Z,15.9
2016-11-22T05:43:23.112Z,16.04
2016-11-22T05:44:33.912Z,15.97
2016-11-22T05:45:46.545Z,15.88
2016-11-22T05:46:58.832Z,15.91
2016-11-22T05:48:12.071Z,15.83
2016-11-22T05:49:23.151Z,15.91
2016-11-22T05:50:35.302Z,15.86
2016-11-22T05:51:47.011Z,15.97
2016-11-22T05:52:59.705Z,16
2016-11-22T05:54:12.403Z,15.91
2016-11-22T05:55:24.025Z,15.86
2016-11-22T05:56:35.762Z,15.94
2016-11-22T05:57:46.861Z,15.9
2016-11-22T05:58:59.455Z,15.9
2016-11-22T06:00:11.508Z,16.04
2016-11-22T06:01:24.693Z,15.95
2016-11-22T06:02:36.446Z,15.97
2016-11-22T06:03:49.133Z,15.82
2016-11-22T06:05:01.750Z,15.61
2016-11-22T06:06:13.972Z,15.47
2016-11-22T06:07:25.604Z,15.47
2016-11-22T06:08:37.204Z,15.51
2016-11-22T06:09:48.900Z,15.62
2016-11-22T06:11:00.981Z,15.51
2016-11-22T06:12:12.258Z,15.44
2016-11-22T06:13:23.677Z,15.52
2016-11-22T06:14:36.447Z,15.65
2016-11-22T06:15:48.522Z,15.49
2016-11-22T06:17:00.602Z,15.49
2016-11-22T06:18:11.474Z,15.62
2016-11-22T06:19:22.744Z,15.65
2016-11-22T06:20:35.160Z,15.82
2016-11-22T06:21:46.762Z,15.82
2016-11-22T06:22:57.977Z,15.77
2016-11-22T06:24:09.835Z,15.58
2016-11-22T06:25:22.112Z,15.47
2016-11-22T06:26:34.960Z,15.39
2016-11-22T06:27:47.008Z,15.35
2016-11-22T06:28:59.002Z,15.44
2016-11-22T06:30:11.128Z,15.44
2016-11-22T06:31:23.059Z,15.44
2016-11-22T06:32:34.065Z,15.62
2016-11-22T06:33:46.489Z,15.68
2016-11-22T06:34:57.895Z,15.58
2016-11-22T06:36:09.565Z,15.58
2016-11-22T06:37:20.810Z,15.68
2016-11-22T06:38:32.259Z,15.83
2016-11-22T06:39:44.506Z,15.67
2016-11-22T06:40:55.981Z,15.59
2016-11-22T06:42:08.022Z,15.88
2016-11-22T06:43:19.716Z,15.91
2016-11-22T06:44:30.983Z,15.83
2016-11-22T06:45:42.429Z,15.64
2016-11-22T06:46:53.990Z,15.67
2016-11-22T06:48:04.697Z,15.61
2016-11-22T06:49:16.540Z,15.59
2016-11-22T06:50:28.059Z,15.49
2016-11-22T06:51:39.665Z,15.59
2016-11-22T06:52:51.820Z,15.46
2016-11-22T06:54:04.984Z,15.44
2016-11-22T06:55:15.673Z,15.46
2016-11-22T06:56:27.904Z,15.39
2016-11-22T06:57:40.154Z,15.59
2016-11-22T06:58:52.522Z,15.72
2016-11-22T07:00:04.316Z,15.62
2016-11-22T07:01:16.698Z,15.54
2016-11-22T07:02:29.503Z,15.47
2016-11-22T07:03:40.850Z,15.49
2016-11-22T07:04:53.172Z,15.52
2016-11-22T07:06:05.940Z,15.44
2016-11-22T07:07:16.861Z,15.37
2016-11-22T07:08:30.095Z,15.46
2016-11-22T07:09:42.268Z,15.52
2016-11-22T07:10:54.641Z,15.58
2016-11-22T07:12:06.160Z,15.8
2016-11-22T07:13:18.516Z,15.79
2016-11-22T07:14:30.210Z,15.86
2016-11-22T07:15:42.156Z,15.98
2016-11-22T07:16:54.419Z,15.91
2016-11-22T07:18:06.664Z,15.97
2016-11-22T07:19:19.853Z,16.08
2016-11-22T07:20:31.059Z,16.13
2016-11-22T07:21:43.371Z,16.2
2016-11-22T07:22:54.650Z,16.23
2016-11-22T07:24:06.945Z,16.04
2016-11-22T07:25:18.828Z,16.1
2016-11-22T07:26:31.046Z,16.12
2016-11-22T07:27:42.480Z,16.23
2016-11-22T07:28:54.752Z,16.1
2016-11-22T07:30:05.789Z,15.97
2016-11-22T07:31:17.989Z,15.73
2016-11-22T07:32:29.449Z,15.76
2016-11-22T07:33:41.632Z,15.57
2016-11-22T07:34:53.598Z,15.73
2016-11-22T07:36:05.671Z,15.64
2016-11-22T07:37:17.503Z,15.76
2016-11-22T07:38:28.380Z,15.73
2016-11-22T07:39:40.903Z,15.73
2016-11-22T07:40:53.007Z,15.84
2016-11-22T07:42:04.336Z,15.8
2016-11-22T07:43:16.571Z,15.9
2016-11-22T07:44:28.989Z,16.09
2016-11-22T07:45:40.377Z,16
2016-11-22T07:46:53.156Z,15.98
2016-11-22T07:48:04.779Z,16.12
2016-11-22T07:49:16.586Z,16
2016-11-22T07:50:27.884Z,16.05
2016-11-22T07:51:39.666Z,16.01
2016-11-22T07:52:51.364Z,15.73
2016-11-22T07:54:03.395Z,15.72
2016-11-22T07:55:15.749Z,15.91
2016-11-22T07:56:28.388Z,15.86
2016-11-22T07:57:40.523Z,15.88
2016-11-22T07:58:52.422Z,15.88
2016-11-22T08:00:03.209Z,15.83
2016-11-22T08:01:15.385Z,15.67
2016-11-22T08:02:27.224Z,15.7
2016-11-22T08:03:39.003Z,15.65
2016-11-22T08:04:51.591Z,15.64
2016-11-22T08:06:03.197Z,15.44
2016-11-22T08:07:15.456Z,15.49
2016-11-22T08:08:28.193Z,15.47
2016-11-22T08:09:40.122Z,15.54
2016-11-22T08:10:51.872Z,15.64
2016-11-22T08:12:04.390Z,15.82
2016-11-22T08:13:16.545Z,15.82
2016-11-22T08:14:27.059Z,15.83
2016-11-22T08:15:39.745Z,15.59
2016-11-22T08:16:51.906Z,15.62
2016-11-22T08:18:04.605Z,15.52
2016-11-22T08:19:16.649Z,15.4
2016-11-22T08:20:28.692Z,15.64
2016-11-22T08:21:40.166Z,15.55
2016-11-22T08:22:52.118Z,15.68
2016-11-22T08:24:04.043Z,15.75
2016-11-22T08:25:16.121Z,15.62
2016-11-22T08:26:27.522Z,15.47
2016-11-22T08:27:38.995Z,15.46
2016-11-22T08:28:51.795Z,15.64
2016-11-22T08:30:04.452Z,15.64
2016-11-22T08:31:15.452Z,15.36
2016-11-22T08:32:26.407Z,15.36
2016-11-22T08:33:38.473Z,15.36
2016-11-22T08:34:50.884Z,15.43
2016-11-22T08:36:03.109Z,15.52
2016-11-22T08:37:15.285Z,15.51
2016-11-22T08:38:26.980Z,15.58
2016-11-22T08:39:38.927Z,15.64
2016-11-22T08:40:50.198Z,15.7
2016-11-22T08:42:02.439Z,15.86
2016-11-22T08:43:13.727Z,15.82
2016-11-22T08:44:26.049Z,15.72
2016-11-22T08:45:38.612Z,15.73
2016-11-22T08:46:50.446Z,15.64
2016-11-22T08:48:01.455Z,15.52
2016-11-22T08:49:12.770Z,15.51
2016-11-22T08:50:25.480Z,15.73
2016-11-22T08:51:37.437Z,15.82
2016-11-22T08:52:50.306Z,15.86
2016-11-22T08:54:02.776Z,15.94
2016-11-22T08:55:14.246Z,15.97
2016-11-22T08:56:26.488Z,15.76
2016-11-22T08:57:38.589Z,15.64
2016-11-22T08:58:50.828Z,15.52
2016-11-22T09:00:02.918Z,15.7
2016-11-22T09:01:12.428Z,15.84
2016-11-22T09:02:24.586Z,15.86
2016-11-22T09:03:36.873Z,15.83
2016-11-22T09:04:48.977Z,15.88
2016-11-22T09:05:59.867Z,15.95
2016-11-22T09:07:10.577Z,15.98
2016-11-22T09:08:21.882Z,15.9
2016-11-22T09:09:33.843Z,15.84
2016-11-22T09:10:46.010Z,15.86
2016-11-22T09:11:56.688Z,15.77
2016-11-22T09:13:08.047Z,15.86
2016-11-22T09:14:19.734Z,15.77
2016-11-22T09:15:30.730Z,15.73
2016-11-22T09:16:42.092Z,15.79
2016-11-22T09:17:52.640Z,15.9
2016-11-22T09:19:04.489Z,16.05
2016-11-22T09:20:16.703Z,16.38
2016-11-22T09:21:28.291Z,16.49
2016-11-22T09:22:40.374Z,16.12
2016-11-22T09:23:52.282Z,15.91
2016-11-22T09:25:04.872Z,15.86
2016-11-22T09:26:16.186Z,16.09
2016-11-22T09:27:27.324Z,15.94
2016-11-22T09:28:39.737Z,16.05
2016-11-22T09:29:50.854Z,16
2016-11-22T09:31:02.088Z,15.72
2016-11-22T09:32:13.870Z,15.72
2016-11-22T09:33:26.694Z,15.76
2016-11-22T09:34:37.147Z,15.47
2016-11-22T09:35:49.049Z,15.42
2016-11-22T09:37:00.619Z,15.27
2016-11-22T09:38:12.797Z,15.14
2016-11-22T09:39:25.595Z,15.02
2016-11-22T09:40:35.667Z,14.92
2016-11-22T09:41:47.864Z,15.19
2016-11-22T09:42:59.288Z,15.17
2016-11-22T09:44:10.670Z,15.1
2016-11-22T09:45:22.983Z,15.31
2016-11-22T09:46:34.712Z,15.25
2016-11-22T09:47:48.016Z,15.21
2016-11-22T09:48:59.499Z,15.35
2016-11-22T09:50:10.744Z,15.49
2016-11-22T09:51:22.336Z,15.36
2016-11-22T09:52:35.043Z,15.27
2016-11-22T09:53:47.301Z,15.44
2016-11-22T09:54:58.208Z,15.42
2016-11-22T09:56:10.447Z,15.44
2016-11-22T09:57:23.133Z,15.57
2016-11-22T09:58:35.899Z,15.61
2016-11-22T09:59:47.016Z,15.65
2016-11-22T10:00:58.274Z,15.49
2016-11-22T10:02:10.158Z,15.28
2016-11-22T10:03:22.393Z,15.25
2016-11-22T10:04:34.380Z,15.42
2016-11-22T10:05:47.052Z,15.52
2016-11-22T10:06:59.864Z,15.75
2016-11-22T10:08:12.102Z,15.8
2016-11-22T10:09:23.063Z,15.58
2016-11-22T10:10:35.292Z,15.36
2016-11-22T10:11:47.350Z,15.25
2016-11-22T10:12:59.119Z,15.51
2016-11-22T10:14:11.172Z,15.73
2016-11-22T10:15:23.936Z,15.98
2016-11-22T10:16:35.147Z,16.09
2016-11-22T10:17:47.559Z,16.31
2016-11-22T10:18:59.325Z,16.02
2016-11-22T10:20:11.832Z,15.91
2016-11-22T10:21:23.310Z,15.91
2016-11-22T10:22:34.943Z,15.68
2016-11-22T10:23:45.347Z,15.82
2016-11-22T10:24:56.946Z,15.88
2016-11-22T10:26:09.154Z,15.9
2016-11-22T10:27:20.586Z,16.04
2016-11-22T10:28:31.856Z,16.08
2016-11-22T10:29:43.020Z,16.01
2016-11-22T10:30:54.587Z,16.05
2016-11-22T10:32:06.611Z,16.16
2016-11-22T10:33:18.668Z,16.47
2016-11-22T10:34:29.960Z,16.54
2016-11-22T10:35:41.814Z,16.69
2016-11-22T10:36:53.695Z,16.69
2016-11-22T10:38:05.337Z,16.57
2016-11-22T10:39:16.534Z,16.64
2016-11-22T10:40:27.931Z,16.39
2016-11-22T10:41:40.510Z,16.31
2016-11-22T10:42:52.620Z,16.28
2016-11-22T10:44:04.471Z,16.47
2016-11-22T10:45:16.605Z,16.21
2016-11-22T10:46:28.107Z,15.86
2016-11-22T10:47:40.728Z,15.92
2016-11-22T10:48:52.475Z,16.12
2016-11-22T10:50:04.695Z,16.08
2016-11-22T10:51:17.418Z,15.88
2016-11-22T10:52:29.448Z,15.86
2016-11-22T10:53:41.527Z,15.73
2016-11-22T10:54:53.178Z,15.58
2016-11-22T10:56:05.056Z,15.52
2016-11-22T10:57:18.282Z,15.65
2016-11-22T10:58:31.057Z,15.65
2016-11-22T10:59:44.346Z,15.75
2016-11-22T11:00:56.102Z,15.73
2016-11-22T11:02:07.352Z,15.77
2016-11-22T11:03:19.921Z,16
2016-11-22T11:04:31.516Z,16.09
2016-11-22T11:05:43.127Z,16.08
2016-11-22T11:06:55.262Z,15.83
2016-11-22T11:08:07.170Z,15.76
2016-11-22T11:09:18.352Z,15.65
2016-11-22T11:10:29.472Z,15.73
2016-11-22T11:11:41.182Z,15.75
2016-11-22T11:12:52.887Z,15.82
2016-11-22T11:14:04.994Z,15.73
2016-11-22T11:15:17.538Z,15.68
2016-11-22T11:16:30.161Z,15.95
2016-11-22T11:17:41.809Z,16.24
2016-11-22T11:18:53.548Z,16.24
2016-11-22T11:20:05.786Z,16.36
2016-11-22T11:21:16.931Z,16.31
2016-11-22T11:22:28.935Z,15.8
2016-11-22T11:23:41.096Z,15.95
2016-11-22T11:24:53.860Z,16.28
2016-11-22T11:26:06.006Z,16.09
2016-11-22T11:27:17.621Z,15.83
2016-11-22T11:28:30.155Z,15.86
2016-11-22T11:29:41.088Z,16
2016-11-22T11:30:53.738Z,15.83
2016-11-22T11:32:06.991Z,15.84
2016-11-22T11:33:19.206Z,15.73
2016-11-22T11:34:30.147Z,15.68
2016-11-22T11:35:42.418Z,15.58
2016-11-22T11:36:54.291Z,15.61
2016-11-22T11:38:06.950Z,15.52
2016-11-22T11:39:19.206Z,15.47
2016-11-22T11:40:30.906Z,15.72
2016-11-22T11:41:43.547Z,15.8
2016-11-22T11:42:55.030Z,15.9
2016-11-22T11:44:06.865Z,15.98
2016-11-22T11:45:18.771Z,16.15
2016-11-22T11:46:29.854Z,16.38
2016-11-22T11:47:42.543Z,16.39
2016-11-22T11:48:54.291Z,16.36
2016-11-22T11:50:07.512Z,16.5
2016-11-22T11:51:18.866Z,16.53
2016-11-22T11:52:32.078Z,16.39
2016-11-22T11:53:43.631Z,16.43
2016-11-22T11:54:54.702Z,16.24
2016-11-22T11:56:06.435Z,16.46
2016-11-22T11:57:18.687Z,16.36
2016-11-22T11:58:30.127Z,16.49
2016-11-22T11:59:41.747Z,16.26
2016-11-22T12:00:54.455Z,16.2
2016-11-22T12:02:07.221Z,16.47
2016-11-22T12:03:19.864Z,16.35
2016-11-22T12:04:32.952Z,16.2
2016-11-22T12:05:44.562Z,16.36
2016-11-22T12:06:55.640Z,16.57
2016-11-22T12:08:07.323Z,17.02
2016-11-22T12:09:18.771Z,16.75
2016-11-22T12:10:31.310Z,16.72
2016-11-22T12:11:43.481Z,16.83
2016-11-22T12:12:56.663Z,16.84
2016-11-22T12:14:09.182Z,16.68
2016-11-22T12:15:21.006Z,16.54
2016-11-22T12:16:33.513Z,16.9
2016-11-22T12:17:45.619Z,17.3
2016-11-22T12:18:57.530Z,17.49
2016-11-22T12:20:09.380Z,17.57
2016-11-22T12:21:21.262Z,17.51
2016-11-22T12:22:32.685Z,16.94
2016-11-22T12:23:45.218Z,17.06
2016-11-22T12:24:57.491Z,17.12
2016-11-22T12:26:09.691Z,16.72
2016-11-22T12:27:21.200Z,16.58
2016-11-22T12:28:32.503Z,16.68
2016-11-22T12:29:44.595Z,16.5
2016-11-22T12:30:55.622Z,16.91
2016-11-22T12:32:07.952Z,16.99
2016-11-22T12:33:19.694Z,16.72
2016-11-22T12:34:30.573Z,16.71
2016-11-22T12:35:42.532Z,16.66
2016-11-22T12:36:55.155Z,16.89
2016-11-22T12:38:07.076Z,16.96
2016-11-22T12:39:18.445Z,16.86
2016-11-22T12:40:30.646Z,16.69
2016-11-22T12:41:42.321Z,16.58
2016-11-22T12:42:54.672Z,16.99
2016-11-22T12:44:05.166Z,16.97
2016-11-22T12:45:17.208Z,16.78
2016-11-22T12:46:28.654Z,16.66
2016-11-22T12:47:39.674Z,16.74
2016-11-22T12:48:50.602Z,16.86
2016-11-22T12:50:03.477Z,16.97
2016-11-22T12:51:15.703Z,16.86
2016-11-22T12:52:28.364Z,17.04
2016-11-22T12:53:40.315Z,17.36
2016-11-22T12:54:53.036Z,17.02
2016-11-22T12:56:05.752Z,17.01
2016-11-22T12:57:16.645Z,17.06
2016-11-22T12:58:29.657Z,17.24
2016-11-22T12:59:41.221Z,17.23
2016-11-22T13:00:53.627Z,17.16
2016-11-22T13:02:05.534Z,17.49
2016-11-22T13:03:17.253Z,17.56
2016-11-22T13:04:29.456Z,17.34
2016-11-22T13:05:40.864Z,17.49
2016-11-22T13:06:53.643Z,17.63
2016-11-22T13:08:04.903Z,17.48
2016-11-22T13:09:15.725Z,17.34
2016-11-22T13:10:27.923Z,17.06
2016-11-22T13:11:39.040Z,17.04
2016-11-22T13:12:50.891Z,17.06
2016-11-22T13:14:02.661Z,16.96
2016-11-22T13:15:14.887Z,17.3
2016-11-22T13:16:26.540Z,17.3
2016-11-22T13:17:38.338Z,17.26
2016-11-22T13:18:51.137Z,17.04
2016-11-22T13:20:02.068Z,16.79
2016-11-22T13:21:12.817Z,16.69
2016-11-22T13:22:24.907Z,16.86
2016-11-22T13:23:37.629Z,17.08
2016-11-22T13:24:49.417Z,17.22
2016-11-22T13:26:00.183Z,17.14
2016-11-22T13:27:12.121Z,17.2
2016-11-22T13:28:22.740Z,17.08
2016-11-22T13:29:34.612Z,17.19
2016-11-22T13:30:44.853Z,16.97
2016-11-22T13:31:56.665Z,17.04
2016-11-22T13:33:08.513Z,16.84
2016-11-22T13:34:19.999Z,16.49
2016-11-22T13:35:31.586Z,16.65
2016-11-22T13:36:43.199Z,16.97
2016-11-22T13:37:55.301Z,17.06
2016-11-22T13:39:06.823Z,17.01
2016-11-22T13:40:19.117Z,17.12
2016-11-22T13:41:30.814Z,16.81
2016-11-22T13:42:42.414Z,16.87
2016-11-22T13:43:54.423Z,16.97
2016-11-22T13:45:06.614Z,17.08
2016-11-22T13:46:18.635Z,17.15
2016-11-22T13:47:29.656Z,17.19
2016-11-22T13:48:42.377Z,17.01
2016-11-22T13:49:54.653Z,17.01
2016-11-22T13:51:06.694Z,16.57
2016-11-22T13:52:17.707Z,16.35
2016-11-22T13:53:29.719Z,16.23
2016-11-22T13:54:41.139Z,16.24
2016-11-22T13:55:52.144Z,16.02
2016-11-22T13:57:03.905Z,15.98
2016-11-22T13:58:16.674Z,15.9
2016-11-22T13:59:28.317Z,15.7
2016-11-22T14:00:40.996Z,15.49
2016-11-22T14:01:52.968Z,15.49
2016-11-22T14:03:05.226Z,15.61
2016-11-22T14:04:16.769Z,15.52
2016-11-22T14:05:28.763Z,15.51
2016-11-22T14:06:40.369Z,15.55
2016-11-22T14:07:52.224Z,15.58
2016-11-22T14:09:03.802Z,15.64
2016-11-22T14:10:16.414Z,15.65
2016-11-22T14:11:28.498Z,15.33
2016-11-22T14:12:40.604Z,15.25
2016-11-22T14:13:51.838Z,14.66
2016-11-22T14:15:03.393Z,15
2016-11-22T14:16:14.487Z,14.92
2016-11-22T14:17:26.495Z,14.77
2016-11-22T14:18:37.268Z,14.66
2016-11-22T14:19:49.006Z,14.37
2016-11-22T14:21:00.832Z,14.55
2016-11-22T14:22:11.974Z,14.6
2016-11-22T14:23:22.831Z,14.66
2016-11-22T14:24:34.053Z,14.68
2016-11-22T14:25:46.163Z,14.81
2016-11-22T14:26:56.333Z,14.35
2016-11-22T14:28:07.984Z,14.47
2016-11-22T14:29:19.572Z,14.72
2016-11-22T14:30:31.793Z,14.89
2016-11-22T14:31:42.059Z,14.85
2016-11-22T14:32:53.253Z,14.78
2016-11-22T14:34:04.500Z,14.86
2016-11-22T14:35:16.751Z,14.81
2016-11-22T14:36:28.451Z,14.82
2016-11-22T14:37:40.733Z,14.85
2016-11-22T14:38:52.048Z,14.97
2016-11-22T14:40:03.612Z,14.91
2016-11-22T14:41:15.293Z,15.06
2016-11-22T14:42:27.926Z,14.89
2016-11-22T14:43:39.896Z,14.92
2016-11-22T14:44:52.063Z,14.82
2016-11-22T14:46:04.687Z,14.85
2016-11-22T14:47:15.454Z,14.94
2016-11-22T14:48:27.379Z,14.91
2016-11-22T14:49:39.458Z,14.73
2016-11-22T14:50:50.866Z,14.96
2016-11-22T14:52:02.033Z,15.1
2016-11-22T14:53:14.039Z,15.21
2016-11-22T14:54:25.090Z,14.96
2016-11-22T14:55:37.530Z,14.91
2016-11-22T14:56:49.599Z,14.94
2016-11-22T14:58:02.180Z,14.91
2016-11-22T14:59:14.273Z,15.31
2016-11-22T15:00:26.894Z,15.33
2016-11-22T15:01:38.094Z,15.35
2016-11-22T15:02:50.783Z,15.37
2016-11-22T15:04:01.070Z,15.27
2016-11-22T15:05:12.217Z,15.49
2016-11-22T15:06:23.437Z,15.49
2016-11-22T15:07:35.322Z,15.47
2016-11-22T15:08:47.046Z,15.44
2016-11-22T15:09:59.712Z,15.4
2016-11-22T15:11:12.181Z,15.29
2016-11-22T15:12:24.062Z,15.46
2016-11-22T15:13:35.901Z,15.57
2016-11-22T15:14:47.263Z,15.44
2016-11-22T15:15:59.826Z,15.46
2016-11-22T15:17:11.948Z,15.46
2016-11-22T15:18:23.357Z,15.55
2016-11-22T15:19:35.516Z,15.7
2016-11-22T15:20:46.536Z,15.83
2016-11-22T15:21:58.572Z,15.49
2016-11-22T15:23:10.075Z,15.44
2016-11-22T15:24:22.308Z,15.46
2016-11-22T15:25:34.845Z,15.29
2016-11-22T15:26:47.033Z,15.47
2016-11-22T15:27:58.568Z,15.59
2016-11-22T15:29:10.649Z,15.52
2016-11-22T15:30:21.931Z,15.51
2016-11-22T15:31:33.431Z,15.59